createdAt,value
2018-06-05T00:01:34.305Z,17.80
2018-06-05T00:06:40.242Z,16.47
2018-06-05T00:12:00.582Z,16.93
2018-06-05T00:17:05.072Z,15.20
2018-06-05T00:22:12.339Z,16.10
2018-06-05T00:27:16.697Z,14.37
2018-06-05T00:32:21.100Z,14.37
2018-06-05T00:37:26.472Z,16.37
2018-06-05T00:42:30.308Z,13.37
2018-06-05T00:47:34.677Z,15.37
2018-06-05T00:52:39.734Z,13.10
2018-06-05T00:57:44.309Z,14.40
2018-06-05T01:02:49.052Z,13.77
2018-06-05T01:07:51.928Z,13.80
2018-06-05T01:12:55.574Z,12.37
2018-06-05T01:18:01.879Z,11.83
2018-06-05T01:23:08.653Z,12.53
2018-06-05T01:28:12.392Z,11.23
2018-06-05T01:33:15.787Z,12.13
2018-06-05T01:38:20.009Z,11.33
2018-06-05T01:43:24.473Z,10.47
2018-06-05T01:48:27.675Z,10.33
2018-06-05T01:53:32.088Z,9.60
2018-06-05T01:58:36.496Z,11.07
2018-06-05T02:03:40.178Z,9.43
2018-06-05T02:08:45.649Z,10.70
2018-06-05T02:13:50.036Z,10.40
2018-06-05T02:18:53.633Z,10.00
2018-06-05T02:23:57.128Z,10.67
2018-06-05T02:29:01.253Z,10.70
2018-06-05T02:34:04.971Z,10.60
2018-06-05T02:39:11.267Z,9.07
2018-06-05T02:44:14.810Z,8.90
2018-06-05T02:49:19.521Z,8.83
2018-06-05T02:54:24.585Z,7.53
2018-06-05T02:59:29.975Z,7.83
2018-06-05T03:04:34.814Z,7.50
2018-06-05T03:09:42.454Z,8.87
2018-06-05T03:14:46.617Z,8.97
2018-06-05T03:19:50.365Z,9.10
2018-06-05T03:24:54.304Z,7.63
2018-06-05T03:29:58.721Z,9.27
2018-06-05T03:35:04.187Z,7.70
2018-06-05T03:40:08.512Z,8.70
2018-06-05T03:45:12.021Z,7.97
2018-06-05T03:50:15.456Z,7.87
2018-06-05T03:55:20.031Z,9.70
2018-06-05T04:00:24.829Z,8.83
2018-06-05T04:05:28.792Z,8.83
2018-06-05T04:10:34.593Z,8.30
2018-06-05T04:15:42.889Z,9.40
2018-06-05T04:20:47.303Z,6.90
2018-06-05T04:25:52.162Z,7.10
2018-06-05T04:30:58.590Z,8.97
2018-06-05T04:36:02.227Z,10.03
2018-06-05T04:41:05.751Z,9.00
2018-06-05T04:46:11.887Z,10.63
2018-06-05T04:51:15.199Z,8.80
2018-06-05T04:56:18.972Z,8.70
2018-06-05T05:01:22.477Z,8.40
2018-06-05T05:06:25.768Z,7.53
2018-06-05T05:11:38.605Z,8.20
2018-06-05T05:16:43.088Z,8.73
2018-06-05T05:21:47.267Z,7.70
2018-06-05T05:26:53.036Z,7.83
2018-06-05T05:32:02.720Z,8.67
2018-06-05T05:37:07.212Z,9.33
2018-06-05T05:42:10.189Z,10.10
2018-06-05T05:47:14.621Z,7.57
2018-06-05T05:52:17.812Z,7.77
2018-06-05T05:57:20.807Z,9.83
2018-06-05T06:02:24.427Z,9.07
2018-06-05T06:07:33.663Z,8.60
2018-06-05T06:12:38.681Z,7.60
2018-06-05T06:17:43.384Z,7.53
2018-06-05T06:22:48.020Z,8.17
2018-06-05T06:27:51.688Z,9.17
2018-06-05T06:32:56.058Z,7.63
2018-06-05T06:37:59.910Z,10.50
2018-06-05T06:43:02.839Z,8.77
2018-06-05T06:48:07.644Z,7.53
2018-06-05T06:53:10.978Z,7.87
2018-06-05T06:58:15.133Z,9.50
2018-06-05T07:03:20.528Z,7.60
2018-06-05T07:08:24.670Z,7.00
2018-06-05T07:13:28.276Z,6.40
2018-06-05T07:18:31.408Z,7.53
2018-06-05T07:23:34.548Z,6.90
2018-06-05T07:28:38.955Z,7.40
2018-06-05T07:33:43.834Z,8.33
2018-06-05T07:38:48.222Z,7.00
2018-06-05T07:43:51.704Z,7.47
2018-06-05T07:48:56.583Z,9.23
2018-06-05T07:54:03.267Z,8.03
2018-06-05T07:59:06.698Z,6.47
2018-06-05T08:04:10.326Z,8.43
2018-06-05T08:09:13.190Z,6.40
2018-06-05T08:14:17.130Z,6.73
2018-06-05T08:19:21.610Z,6.13
2018-06-05T08:24:27.316Z,7.00
2018-06-05T08:29:31.521Z,8.27
2018-06-05T08:34:34.751Z,9.17
2018-06-05T08:39:38.319Z,6.67
2018-06-05T08:44:42.595Z,6.93
2018-06-05T08:49:55.968Z,8.77
2018-06-05T08:55:00.742Z,7.40
2018-06-05T09:00:04.680Z,7.30
2018-06-05T09:05:07.810Z,7.77
2018-06-05T09:10:10.704Z,7.93
2018-06-05T09:15:13.693Z,9.27
2018-06-05T09:20:17.163Z,6.97
2018-06-05T09:25:20.091Z,9.50
2018-06-05T09:30:23.061Z,8.67
2018-06-05T09:35:26.384Z,6.87
2018-06-05T09:40:29.313Z,5.90
2018-06-05T09:45:32.366Z,8.20
2018-06-05T09:50:35.326Z,7.80
2018-06-05T09:55:38.255Z,5.30
2018-06-05T10:00:46.604Z,8.47
2018-06-05T10:05:49.569Z,6.57
2018-06-05T10:10:52.465Z,5.83
2018-06-05T10:15:55.874Z,6.33
2018-06-05T10:20:59.318Z,8.07
2018-06-05T10:26:02.273Z,6.43
2018-06-05T10:31:05.213Z,8.30
2018-06-05T10:36:08.290Z,5.83
2018-06-05T10:41:11.223Z,6.47
2018-06-05T10:46:14.441Z,6.77
2018-06-05T10:51:17.788Z,7.63
2018-06-05T10:56:20.736Z,7.73
2018-06-05T11:01:23.667Z,5.47
2018-06-05T11:06:26.656Z,7.37
2018-06-05T11:11:29.552Z,6.07
2018-06-05T11:16:32.789Z,5.30
2018-06-05T11:21:36.678Z,7.47
2018-06-05T11:26:39.598Z,6.63
2018-06-05T11:31:42.518Z,7.77
2018-06-05T11:36:45.506Z,6.83
2018-06-05T11:41:48.385Z,5.33
2018-06-05T11:46:51.321Z,5.47
2018-06-05T11:51:54.522Z,6.17
2018-06-05T11:56:57.434Z,6.37
2018-06-05T12:02:00.440Z,5.80
2018-06-05T12:07:03.358Z,5.20
2018-06-05T12:12:10.490Z,5.27
2018-06-05T12:17:18.063Z,5.10
2018-06-05T12:22:21.897Z,5.50
2018-06-05T12:27:25.337Z,4.83
2018-06-05T12:32:28.473Z,4.43
2018-06-05T12:37:31.388Z,5.00
2018-06-05T12:42:34.250Z,5.10
2018-06-05T12:47:37.159Z,4.70
2018-06-05T12:52:40.313Z,5.70
2018-06-05T12:57:43.199Z,4.80
2018-06-05T13:02:46.088Z,5.00
2018-06-05T13:07:49.478Z,4.90
2018-06-05T13:12:52.357Z,4.30
2018-06-05T13:17:55.861Z,4.67
2018-06-05T13:22:59.548Z,4.90
2018-06-05T13:28:02.946Z,4.20
2018-06-05T13:33:05.985Z,3.70
2018-06-05T13:38:09.378Z,3.27
2018-06-05T13:43:12.304Z,5.67
2018-06-05T13:48:15.213Z,4.00
2018-06-05T13:53:18.341Z,4.40
2018-06-05T13:58:21.268Z,3.90
2018-06-05T14:03:26.291Z,4.13
2018-06-05T14:08:36.534Z,3.73
2018-06-05T14:13:39.678Z,4.10
2018-06-05T14:18:42.771Z,4.30
2018-06-05T14:23:46.052Z,3.83
2018-06-05T14:28:48.943Z,4.30
2018-06-05T14:33:51.856Z,3.83
2018-06-05T14:38:55.133Z,2.93
2018-06-05T14:43:58.089Z,4.30
2018-06-05T14:49:08.032Z,3.47
2018-06-05T14:54:16.679Z,4.17
2018-06-05T14:59:20.109Z,3.40
2018-06-05T15:04:23.092Z,3.10
2018-06-05T15:09:31.025Z,3.77
2018-06-05T15:14:34.556Z,4.00
2018-06-05T15:19:37.442Z,3.03
2018-06-05T15:24:40.668Z,3.30
2018-06-05T15:29:47.811Z,3.50
2018-06-05T15:34:51.093Z,3.10
2018-06-05T15:39:54.112Z,3.77
2018-06-05T15:44:57.303Z,3.57
2018-06-05T15:50:00.188Z,3.17
2018-06-05T15:55:03.368Z,3.60
2018-06-05T16:00:06.627Z,3.23
2018-06-05T16:05:09.533Z,3.80
2018-06-05T16:10:12.545Z,4.30
2018-06-05T16:15:15.860Z,3.37
2018-06-05T16:20:18.837Z,4.50
2018-06-05T16:25:22.379Z,3.33
2018-06-05T16:30:25.229Z,4.13
2018-06-05T16:35:28.730Z,3.83
2018-06-05T16:40:31.770Z,4.63
2018-06-05T16:45:34.658Z,3.80
2018-06-05T16:50:37.885Z,4.00
2018-06-05T16:55:41.146Z,3.93
2018-06-05T17:00:44.124Z,3.43
2018-06-05T17:05:47.042Z,4.63
2018-06-05T17:10:50.019Z,3.83
2018-06-05T17:15:52.906Z,4.73
2018-06-05T17:20:56.156Z,4.13
2018-06-05T17:25:59.351Z,4.07
2018-06-05T17:31:03.100Z,4.57
2018-06-05T17:36:10.526Z,3.97
2018-06-05T17:41:13.912Z,4.40
2018-06-05T17:46:16.868Z,3.97
2018-06-05T17:51:20.482Z,3.40
2018-06-05T17:56:23.787Z,3.63
2018-06-05T18:01:26.976Z,4.27
2018-06-05T18:06:34.524Z,4.43
2018-06-05T18:11:37.757Z,4.40
2018-06-05T18:16:40.747Z,2.90
2018-06-05T18:21:43.703Z,3.83
2018-06-05T18:26:47.076Z,4.13
2018-06-05T18:31:50.372Z,4.37
2018-06-05T18:36:53.865Z,3.97
2018-06-05T18:41:57.102Z,3.77
2018-06-05T18:47:00.316Z,3.40
2018-06-05T18:52:03.513Z,3.80
2018-06-05T18:57:06.958Z,3.63
2018-06-05T19:02:10.403Z,3.80
2018-06-05T19:07:13.790Z,4.03
2018-06-05T19:12:17.110Z,4.00
2018-06-05T19:17:20.311Z,4.43
2018-06-05T19:22:23.457Z,3.83
2018-06-05T19:27:27.908Z,4.13
2018-06-05T19:32:31.119Z,4.53
2018-06-05T19:37:34.401Z,3.90
2018-06-05T19:42:37.766Z,4.37
2018-06-05T19:47:41.012Z,4.70
2018-06-05T19:52:44.237Z,4.90
2018-06-05T19:57:47.899Z,5.13
2018-06-05T20:02:51.179Z,5.77
2018-06-05T20:07:54.501Z,4.90
2018-06-05T20:12:57.802Z,4.47
2018-06-05T20:18:00.987Z,5.77
2018-06-05T20:23:04.107Z,5.43
2018-06-05T20:28:07.639Z,3.97
2018-06-05T20:33:11.104Z,4.40
2018-06-05T20:38:14.134Z,4.63
2018-06-05T20:43:17.094Z,4.60
2018-06-05T20:48:20.033Z,4.87
2018-06-05T20:53:22.972Z,5.30
2018-06-05T20:58:26.065Z,4.43
2018-06-05T21:03:29.279Z,4.30
2018-06-05T21:08:32.152Z,5.27
2018-06-05T21:13:35.107Z,3.90
2018-06-05T21:18:37.964Z,4.60
2018-06-05T21:23:40.863Z,4.83
2018-06-05T21:28:43.968Z,3.87
2018-06-05T21:33:47.116Z,4.10
2018-06-05T21:38:49.984Z,4.47
2018-06-05T21:43:55.480Z,4.47
2018-06-05T21:48:58.345Z,4.00
2018-06-05T21:54:01.344Z,4.20
2018-06-05T21:59:04.596Z,4.40
2018-06-05T22:04:08.172Z,4.10
2018-06-05T22:09:11.275Z,3.90
2018-06-05T22:14:14.543Z,3.53
2018-06-05T22:19:17.657Z,3.90
2018-06-05T22:24:20.535Z,3.80
2018-06-05T22:29:23.458Z,4.20
2018-06-05T22:34:26.748Z,3.90
2018-06-05T22:39:29.668Z,4.30
2018-06-05T22:44:32.585Z,4.07
2018-06-05T22:49:35.466Z,4.27
2018-06-05T22:54:38.342Z,4.00
2018-06-05T22:59:41.701Z,3.70
2018-06-05T23:04:44.685Z,4.00
2018-06-05T23:09:47.737Z,4.00
2018-06-05T23:14:51.021Z,4.50
2018-06-05T23:19:54.127Z,3.90
2018-06-05T23:24:57.037Z,3.87
2018-06-05T23:30:00.823Z,4.20
2018-06-05T23:35:04.025Z,3.50
2018-06-05T23:40:07.622Z,3.57
2018-06-05T23:45:11.185Z,3.63
2018-06-05T23:50:14.616Z,4.40
2018-06-05T23:55:17.619Z,4.50
